createdAt,value
2019-05-14T00:02:02.799Z,3.00
2019-05-14T00:04:32.875Z,3.30
2019-05-14T00:07:02.717Z,3.37
2019-05-14T00:09:32.409Z,3.37
2019-05-14T00:12:02.829Z,2.98
2019-05-14T00:14:39.690Z,3.87
2019-05-14T00:17:04.624Z,3.35
2019-05-14T00:19:34.178Z,3.50
2019-05-14T00:22:04.078Z,3.35
2019-05-14T00:24:33.651Z,3.27
2019-05-14T00:27:03.177Z,3.62
2019-05-14T00:29:32.950Z,3.27
2019-05-14T00:32:02.544Z,3.70
2019-05-14T00:34:32.117Z,3.45
2019-05-14T00:37:01.744Z,3.83
2019-05-14T00:39:32.040Z,3.37
2019-05-14T00:42:01.947Z,3.25
2019-05-14T00:44:32.320Z,3.50
2019-05-14T00:47:02.392Z,3.80
2019-05-14T00:49:32.959Z,3.50
2019-05-14T00:52:03.893Z,3.95
2019-05-14T00:54:33.378Z,3.80
2019-05-14T00:57:02.954Z,3.47
2019-05-14T00:59:32.451Z,3.60
2019-05-14T01:02:02.994Z,3.90
2019-05-14T01:04:32.786Z,3.87
2019-05-14T01:07:02.649Z,3.70
2019-05-14T01:09:32.205Z,3.70
2019-05-14T01:12:02.086Z,3.77
2019-05-14T01:14:31.877Z,3.92
2019-05-14T01:17:02.493Z,3.62
2019-05-14T01:19:32.330Z,3.92
2019-05-14T01:22:01.967Z,3.62
2019-05-14T01:24:32.513Z,4.20
2019-05-14T01:27:02.058Z,4.22
2019-05-14T01:29:31.951Z,3.85
2019-05-14T01:32:01.804Z,4.00
2019-05-14T01:34:32.375Z,4.17
2019-05-14T01:37:03.014Z,3.58
2019-05-14T01:39:32.493Z,4.10
2019-05-14T01:42:02.659Z,4.05
2019-05-14T01:44:32.268Z,4.35
2019-05-14T01:47:02.072Z,4.08
2019-05-14T01:49:31.989Z,4.17
2019-05-14T01:52:02.502Z,4.55
2019-05-14T01:54:32.311Z,4.45
2019-05-14T01:57:02.271Z,4.17
2019-05-14T01:59:32.353Z,4.12
2019-05-14T02:02:03.258Z,4.62
2019-05-14T02:04:33.074Z,4.30
2019-05-14T02:07:02.557Z,3.90
2019-05-14T02:09:32.219Z,4.75
2019-05-14T02:12:02.325Z,4.65
2019-05-14T02:14:31.921Z,4.78
2019-05-14T02:17:02.045Z,4.45
2019-05-14T02:19:31.920Z,4.90
2019-05-14T02:22:02.172Z,4.80
2019-05-14T02:24:33.128Z,5.08
2019-05-14T02:27:02.703Z,4.65
2019-05-14T02:29:32.333Z,4.53
2019-05-14T02:32:01.959Z,5.10
2019-05-14T02:34:31.393Z,4.83
2019-05-14T02:37:01.268Z,4.92
2019-05-14T02:39:31.757Z,5.10
2019-05-14T02:42:01.424Z,5.03
2019-05-14T02:44:30.924Z,4.85
2019-05-14T02:47:00.487Z,5.12
2019-05-14T02:49:30.346Z,5.40
2019-05-14T02:51:59.978Z,5.42
2019-05-14T02:54:29.929Z,5.28
2019-05-14T02:57:00.382Z,5.25
2019-05-14T02:59:30.794Z,5.72
2019-05-14T03:02:00.457Z,5.83
2019-05-14T03:04:30.264Z,5.75
2019-05-14T03:07:00.308Z,6.03
2019-05-14T03:09:29.869Z,5.50
2019-05-14T03:11:59.840Z,6.03
2019-05-14T03:14:30.436Z,6.15
2019-05-14T03:17:02.188Z,5.87
2019-05-14T03:19:32.098Z,5.97
2019-05-14T03:22:01.737Z,6.15
2019-05-14T03:24:31.225Z,6.17
2019-05-14T03:27:00.778Z,6.30
2019-05-14T03:29:31.106Z,6.62
2019-05-14T03:32:03.146Z,6.47
2019-05-14T03:34:33.620Z,6.87
2019-05-14T03:37:04.325Z,6.45
2019-05-14T03:39:34.176Z,6.12
2019-05-14T03:42:03.909Z,6.47
2019-05-14T03:44:33.448Z,6.50
2019-05-14T03:47:05.381Z,6.35
2019-05-14T03:49:35.266Z,6.15
2019-05-14T03:52:05.334Z,6.65
2019-05-14T03:54:34.888Z,6.50
2019-05-14T03:57:04.500Z,6.67
2019-05-14T03:59:34.057Z,6.70
2019-05-14T04:02:03.668Z,6.28
2019-05-14T04:04:33.655Z,6.65
2019-05-14T04:07:04.409Z,6.60
2019-05-14T04:09:34.481Z,6.55
2019-05-14T04:12:09.745Z,7.25
2019-05-14T04:14:40.970Z,6.45
2019-05-14T04:17:15.658Z,7.12
2019-05-14T04:19:49.277Z,6.30
2019-05-14T04:22:20.368Z,6.20
2019-05-14T04:24:52.225Z,6.22
2019-05-14T04:27:23.166Z,6.83
2019-05-14T04:29:54.559Z,6.28
2019-05-14T04:32:24.229Z,6.58
2019-05-14T04:34:53.863Z,6.65
2019-05-14T04:37:23.769Z,6.42
2019-05-14T04:39:53.337Z,5.92
2019-05-14T04:42:22.958Z,6.78
2019-05-14T04:44:52.528Z,5.95
2019-05-14T04:47:31.577Z,6.42
2019-05-14T04:49:53.979Z,6.25
2019-05-14T04:52:23.893Z,7.30
2019-05-14T04:54:53.696Z,7.20
2019-05-14T04:57:25.608Z,6.47
2019-05-14T04:59:55.393Z,6.15
2019-05-14T05:02:25.673Z,5.72
2019-05-14T05:04:55.123Z,5.12
2019-05-14T05:07:24.667Z,5.45
2019-05-14T05:09:54.118Z,5.87
2019-05-14T05:12:23.763Z,5.50
2019-05-14T05:14:53.229Z,5.50
2019-05-14T05:17:38.940Z,5.55
2019-05-14T05:19:53.898Z,5.50
2019-05-14T05:22:23.350Z,5.40
2019-05-14T05:24:53.295Z,5.62
2019-05-14T05:27:22.746Z,5.30
2019-05-14T05:29:52.240Z,5.67
2019-05-14T05:32:22.028Z,4.97
2019-05-14T05:34:51.532Z,5.35
2019-05-14T05:37:21.046Z,5.42
2019-05-14T05:39:50.531Z,5.00
2019-05-14T05:42:20.142Z,5.10
2019-05-14T05:44:49.688Z,5.15
2019-05-14T05:47:19.215Z,5.42
2019-05-14T05:49:48.978Z,5.30
2019-05-14T05:52:19.126Z,4.58
2019-05-14T05:54:49.915Z,4.87
2019-05-14T05:57:19.395Z,5.50
2019-05-14T05:59:48.924Z,4.65
2019-05-14T06:02:18.979Z,5.12
2019-05-14T06:04:50.640Z,4.83
2019-05-14T06:07:20.323Z,4.70
2019-05-14T06:09:49.834Z,4.65
2019-05-14T06:12:19.313Z,4.97
2019-05-14T06:14:48.970Z,5.28
2019-05-14T06:17:19.201Z,4.40
2019-05-14T06:19:48.972Z,4.50
2019-05-14T06:22:19.009Z,4.50
2019-05-14T06:24:48.841Z,4.33
2019-05-14T06:27:18.426Z,4.03
2019-05-14T06:29:48.917Z,4.40
2019-05-14T06:32:39.370Z,4.40
2019-05-14T06:35:09.689Z,4.12
2019-05-14T06:37:39.502Z,3.60
2019-05-14T06:40:09.294Z,3.35
2019-05-14T06:42:39.583Z,3.60
2019-05-14T06:45:09.353Z,3.47
2019-05-14T06:47:38.847Z,3.15
2019-05-14T06:50:08.978Z,3.12
2019-05-14T06:52:38.937Z,3.40
2019-05-14T06:55:09.103Z,3.75
2019-05-14T06:57:39.731Z,3.05
2019-05-14T07:00:10.381Z,3.20
2019-05-14T07:02:43.684Z,3.30
2019-05-14T07:05:11.438Z,3.75
2019-05-14T07:07:40.944Z,3.00
2019-05-14T07:10:10.591Z,3.50
2019-05-14T07:12:41.141Z,3.25
2019-05-14T07:15:10.768Z,3.50
2019-05-14T07:17:40.233Z,3.05
2019-05-14T07:20:10.167Z,3.40
2019-05-14T07:22:39.748Z,3.58
2019-05-14T07:25:10.081Z,3.10
2019-05-14T07:27:39.625Z,2.90
2019-05-14T07:30:09.642Z,2.80
2019-05-14T07:32:39.629Z,2.50
2019-05-14T07:35:12.391Z,2.70
2019-05-14T07:37:42.315Z,3.42
2019-05-14T07:40:12.521Z,2.65
2019-05-14T07:42:42.200Z,2.40
2019-05-14T07:45:12.045Z,3.02
2019-05-14T07:47:41.869Z,2.50
2019-05-14T07:50:11.990Z,2.27
2019-05-14T07:52:45.271Z,2.12
2019-05-14T07:55:12.981Z,2.30
2019-05-14T07:57:42.428Z,2.00
2019-05-14T08:00:12.689Z,1.92
2019-05-14T08:02:42.502Z,2.02
2019-05-14T08:05:12.436Z,2.02
2019-05-14T08:07:41.889Z,1.70
2019-05-14T08:10:11.730Z,2.10
2019-05-14T08:12:41.564Z,1.85
2019-05-14T08:15:17.638Z,1.95
2019-05-14T08:17:43.444Z,1.60
2019-05-14T08:20:13.474Z,1.47
2019-05-14T08:22:43.000Z,1.50
2019-05-14T08:25:12.902Z,1.60
2019-05-14T08:27:42.400Z,1.37
2019-05-14T08:30:12.699Z,1.70
2019-05-14T08:32:42.152Z,1.30
2019-05-14T08:35:14.115Z,1.45
2019-05-14T08:37:43.633Z,1.62
2019-05-14T08:40:16.453Z,1.37
2019-05-14T08:42:48.456Z,1.30
2019-05-14T08:45:18.948Z,1.70
2019-05-14T08:47:48.971Z,1.70
2019-05-14T08:50:19.383Z,1.42
2019-05-14T08:52:49.314Z,1.50
2019-05-14T08:55:18.920Z,1.17
2019-05-14T08:57:48.969Z,1.17
2019-05-14T09:00:20.082Z,1.32
2019-05-14T09:02:49.569Z,1.60
2019-05-14T09:05:19.052Z,1.30
2019-05-14T09:07:49.156Z,1.10
2019-05-14T09:10:19.404Z,1.07
2019-05-14T09:12:49.272Z,1.50
2019-05-14T09:15:18.931Z,1.27
2019-05-14T09:17:48.850Z,1.30
2019-05-14T09:20:18.962Z,1.20
2019-05-14T09:22:49.091Z,1.82
2019-05-14T09:25:19.158Z,1.40
2019-05-14T09:27:49.492Z,1.27
2019-05-14T09:30:19.235Z,1.30
2019-05-14T09:32:49.422Z,1.30
2019-05-14T09:35:19.196Z,1.37
2019-05-14T09:37:51.299Z,1.82
2019-05-14T09:40:20.136Z,1.60
2019-05-14T09:42:50.136Z,1.37
2019-05-14T09:45:20.074Z,3.05
2019-05-14T09:47:50.688Z,1.27
2019-05-14T09:50:23.490Z,1.30
2019-05-14T09:52:54.205Z,1.00
2019-05-14T09:55:23.730Z,1.30
2019-05-14T09:57:53.660Z,1.65
2019-05-14T10:00:23.386Z,1.60
2019-05-14T10:02:52.937Z,1.60
2019-05-14T10:05:22.423Z,1.50
2019-05-14T10:07:51.910Z,1.20
2019-05-14T10:10:21.520Z,1.30
2019-05-14T10:12:56.342Z,1.10
2019-05-14T10:15:22.806Z,1.10
2019-05-14T10:17:52.630Z,1.10
2019-05-14T10:20:36.355Z,0.90
2019-05-14T10:22:54.950Z,1.10
2019-05-14T10:25:24.568Z,0.90
2019-05-14T10:27:54.428Z,1.05
2019-05-14T10:30:25.586Z,1.10
2019-05-14T10:32:55.195Z,1.10
2019-05-14T10:35:24.679Z,0.93
2019-05-14T10:37:54.534Z,1.10
2019-05-14T10:40:24.040Z,1.35
2019-05-14T10:42:54.611Z,0.80
2019-05-14T10:45:24.558Z,1.10
2019-05-14T10:47:54.012Z,1.07
2019-05-14T10:50:23.903Z,1.10
2019-05-14T10:52:54.475Z,1.10
2019-05-14T10:55:24.256Z,1.10
2019-05-14T10:57:54.450Z,1.20
2019-05-14T11:00:24.286Z,0.82
2019-05-14T11:02:53.790Z,1.12
2019-05-14T11:05:23.419Z,1.12
2019-05-14T11:07:53.398Z,0.93
2019-05-14T11:10:22.984Z,1.30
2019-05-14T11:12:55.087Z,1.02
2019-05-14T11:15:28.492Z,1.15
2019-05-14T11:17:55.248Z,1.10
2019-05-14T11:20:24.759Z,1.10
2019-05-14T11:22:54.263Z,1.12
2019-05-14T11:25:23.760Z,1.00
2019-05-14T11:27:53.355Z,1.30
2019-05-14T11:30:23.347Z,1.25
2019-05-14T11:32:53.264Z,1.00
2019-05-14T11:35:22.809Z,1.00
2019-05-14T11:37:52.294Z,1.02
2019-05-14T11:40:21.940Z,1.02
2019-05-14T11:42:51.440Z,0.90
2019-05-14T11:45:21.360Z,0.90
2019-05-14T11:47:50.908Z,0.90
2019-05-14T11:50:20.534Z,0.90
2019-05-14T11:52:50.082Z,1.20
2019-05-14T11:55:20.560Z,1.00
2019-05-14T11:57:50.415Z,1.07
2019-05-14T12:00:20.352Z,0.98
2019-05-14T12:02:50.408Z,4.03
2019-05-14T12:05:19.933Z,1.60
2019-05-14T12:07:49.520Z,1.10
2019-05-14T12:10:19.725Z,5.00
2019-05-14T12:12:49.531Z,1.37
2019-05-14T12:15:19.128Z,1.10
2019-05-14T12:17:51.016Z,1.10
2019-05-14T12:20:19.966Z,1.05
2019-05-14T12:22:49.426Z,1.05
2019-05-14T12:25:19.100Z,0.90
2019-05-14T12:27:49.602Z,0.88
2019-05-14T12:30:19.848Z,0.88
2019-05-14T12:32:50.295Z,0.88
2019-05-14T12:35:20.057Z,1.67
2019-05-14T12:37:49.657Z,1.20
2019-05-14T12:40:19.567Z,1.30
2019-05-14T12:42:49.966Z,1.15
2019-05-14T12:45:19.799Z,0.90
2019-05-14T12:47:50.217Z,1.00
2019-05-14T12:50:20.672Z,1.10
2019-05-14T12:52:50.266Z,1.02
2019-05-14T12:55:19.874Z,1.02
2019-05-14T12:57:49.300Z,1.40
2019-05-14T13:00:19.391Z,0.90
2019-05-14T13:02:48.995Z,1.10
2019-05-14T13:05:18.673Z,0.88
2019-05-14T13:07:51.081Z,0.80
2019-05-14T13:10:19.665Z,0.82
2019-05-14T13:12:49.316Z,0.80
2019-05-14T13:15:20.173Z,0.93
2019-05-14T13:17:49.802Z,0.90
2019-05-14T13:20:21.006Z,1.10
2019-05-14T13:22:50.616Z,0.75
2019-05-14T13:25:20.296Z,1.00
2019-05-14T13:27:50.338Z,1.02
2019-05-14T13:30:20.151Z,0.80
2019-05-14T13:32:49.727Z,1.20
2019-05-14T13:35:20.324Z,0.70
2019-05-14T13:37:49.774Z,0.90
2019-05-14T13:40:21.188Z,1.02
2019-05-14T13:42:51.093Z,1.00
2019-05-14T13:45:21.274Z,1.00
2019-05-14T13:47:51.052Z,0.90
2019-05-14T13:50:20.841Z,1.12
2019-05-14T13:53:02.796Z,0.90
2019-05-14T13:55:21.883Z,1.00
2019-05-14T13:57:52.589Z,1.00
2019-05-14T14:00:22.727Z,0.98
2019-05-14T14:02:52.215Z,1.10
2019-05-14T14:05:23.003Z,1.00
2019-05-14T14:07:52.568Z,0.95
2019-05-14T14:10:22.095Z,1.00
2019-05-14T14:12:51.586Z,1.02
2019-05-14T14:15:21.038Z,1.00
2019-05-14T14:17:50.525Z,0.93
2019-05-14T14:20:20.047Z,0.85
2019-05-14T14:22:49.924Z,1.10
2019-05-14T14:25:19.847Z,1.05
2019-05-14T14:27:49.438Z,1.00
2019-05-14T14:30:19.602Z,0.90
2019-05-14T14:32:50.656Z,0.90
2019-05-14T14:35:23.553Z,1.10
2019-05-14T14:37:51.420Z,1.02
2019-05-14T14:40:22.509Z,0.90
2019-05-14T14:42:52.114Z,1.10
2019-05-14T14:45:22.039Z,0.93
2019-05-14T14:47:51.694Z,0.72
2019-05-14T14:50:21.288Z,1.00
2019-05-14T14:52:51.074Z,1.07
2019-05-14T14:55:20.675Z,0.80
2019-05-14T14:57:54.498Z,0.90
2019-05-14T15:00:21.917Z,1.10
2019-05-14T15:02:51.791Z,1.12
2019-05-14T15:05:21.326Z,1.00
2019-05-14T15:07:50.842Z,1.00
2019-05-14T15:10:20.645Z,1.25
2019-05-14T15:12:50.133Z,1.12
2019-05-14T15:15:19.632Z,1.02
2019-05-14T15:17:49.117Z,1.10
2019-05-14T15:20:19.485Z,0.90
2019-05-14T15:22:49.828Z,0.90
2019-05-14T15:25:19.531Z,1.45
2019-05-14T15:27:49.244Z,1.00
2019-05-14T15:30:19.218Z,1.00
2019-05-14T15:32:51.277Z,1.10
2019-05-14T15:35:20.003Z,1.00
2019-05-14T15:37:49.558Z,0.90
2019-05-14T15:40:22.442Z,0.90
2019-05-14T15:42:51.369Z,1.05
2019-05-14T15:45:29.682Z,0.90
2019-05-14T15:48:03.457Z,0.85
2019-05-14T15:50:32.773Z,1.02
2019-05-14T15:53:01.535Z,1.07
2019-05-14T15:55:31.388Z,0.90
2019-05-14T15:58:00.893Z,1.12
2019-05-14T16:00:30.487Z,0.88
2019-05-14T16:03:00.407Z,0.80
2019-05-14T16:05:31.390Z,0.80
2019-05-14T16:08:01.359Z,0.80
2019-05-14T16:10:31.552Z,0.95
2019-05-14T16:13:01.310Z,0.90
2019-05-14T16:15:30.854Z,1.30
2019-05-14T16:18:09.222Z,1.00
2019-05-14T16:20:31.580Z,0.90
2019-05-14T16:23:01.375Z,0.95
2019-05-14T16:25:31.212Z,0.88
2019-05-14T16:28:01.628Z,0.95
2019-05-14T16:30:31.300Z,1.07
2019-05-14T16:33:01.161Z,0.90
2019-05-14T16:35:30.694Z,0.80
2019-05-14T16:38:00.568Z,0.90
2019-05-14T16:40:30.142Z,0.78
2019-05-14T16:42:59.704Z,1.10
2019-05-14T16:45:31.312Z,1.00
2019-05-14T16:48:00.554Z,1.00
2019-05-14T16:50:30.081Z,1.10
2019-05-14T16:52:59.625Z,1.10
2019-05-14T16:55:30.624Z,1.20
2019-05-14T16:58:00.558Z,1.05
2019-05-14T17:00:30.133Z,0.98
2019-05-14T17:02:59.627Z,0.93
2019-05-14T17:05:30.179Z,0.80
2019-05-14T17:08:00.135Z,1.00
2019-05-14T17:10:30.813Z,0.80
2019-05-14T17:13:01.762Z,1.00
2019-05-14T17:15:32.645Z,1.10
2019-05-14T17:18:02.228Z,0.90
2019-05-14T17:20:31.862Z,0.80
2019-05-14T17:23:01.364Z,0.80
2019-05-14T17:25:32.468Z,0.80
2019-05-14T17:28:02.023Z,0.80
2019-05-14T17:30:32.640Z,1.00
2019-05-14T17:33:02.216Z,0.90
2019-05-14T17:35:32.117Z,0.98
2019-05-14T17:38:01.910Z,0.90
2019-05-14T17:40:33.033Z,0.90
2019-05-14T17:43:03.615Z,0.93
2019-05-14T17:45:33.169Z,0.80
2019-05-14T17:48:02.732Z,1.00
2019-05-14T17:50:32.665Z,1.05
2019-05-14T17:53:02.365Z,1.07
2019-05-14T17:55:43.493Z,0.90
2019-05-14T17:58:03.486Z,1.10
2019-05-14T18:00:33.066Z,1.12
2019-05-14T18:03:02.978Z,0.90
2019-05-14T18:05:32.556Z,1.00
2019-05-14T18:08:02.108Z,0.90
2019-05-14T18:10:31.744Z,1.22
2019-05-14T18:13:01.237Z,1.10
2019-05-14T18:15:32.733Z,1.20
2019-05-14T18:18:02.232Z,0.88
2019-05-14T18:20:31.864Z,0.95
2019-05-14T18:23:01.372Z,1.00
2019-05-14T18:25:31.065Z,0.82
2019-05-14T18:28:00.906Z,1.00
2019-05-14T18:30:30.541Z,0.93
2019-05-14T18:33:00.063Z,1.20
2019-05-14T18:35:30.826Z,1.00
2019-05-14T18:38:00.667Z,1.02
2019-05-14T18:40:30.132Z,1.00
2019-05-14T18:42:59.604Z,1.07
2019-05-14T18:45:29.588Z,1.10
2019-05-14T18:47:59.348Z,1.20
2019-05-14T18:50:29.111Z,1.12
2019-05-14T18:52:59.702Z,1.05
2019-05-14T18:55:29.602Z,1.10
2019-05-14T18:57:59.526Z,0.90
2019-05-14T19:00:29.736Z,0.90
2019-05-14T19:02:59.394Z,1.12
2019-05-14T19:05:29.626Z,1.00
2019-05-14T19:07:59.673Z,1.20
2019-05-14T19:10:29.855Z,1.20
2019-05-14T19:13:00.062Z,1.05
2019-05-14T19:15:31.142Z,1.22
2019-05-14T19:18:01.452Z,1.10
2019-05-14T19:20:31.227Z,1.30
2019-05-14T19:23:00.802Z,1.20
2019-05-14T19:25:31.501Z,1.17
2019-05-14T19:28:00.981Z,1.20
2019-05-14T19:30:31.511Z,1.30
2019-05-14T19:33:01.213Z,1.30
2019-05-14T19:35:31.256Z,1.25
2019-05-14T19:38:01.245Z,1.35
2019-05-14T19:40:31.390Z,1.42
2019-05-14T19:43:00.954Z,1.45
2019-05-14T19:45:33.534Z,1.57
2019-05-14T19:48:03.353Z,1.30
2019-05-14T19:50:32.838Z,1.30
2019-05-14T19:53:02.702Z,1.65
2019-05-14T19:55:32.560Z,1.30
2019-05-14T19:58:02.220Z,1.40
2019-05-14T20:00:32.288Z,1.02
2019-05-14T20:03:02.120Z,1.30
2019-05-14T20:05:31.612Z,1.30
2019-05-14T20:08:02.207Z,1.20
2019-05-14T20:10:31.717Z,1.32
2019-05-14T20:13:01.454Z,1.45
2019-05-14T20:15:32.782Z,1.37
2019-05-14T20:18:02.306Z,1.25
2019-05-14T20:20:32.070Z,1.07
2019-05-14T20:23:01.670Z,1.27
2019-05-14T20:25:32.251Z,1.20
2019-05-14T20:28:01.752Z,1.45
2019-05-14T20:30:32.237Z,1.17
2019-05-14T20:33:01.968Z,1.30
2019-05-14T20:35:34.990Z,1.27
2019-05-14T20:38:02.915Z,1.40
2019-05-14T20:40:32.443Z,1.65
2019-05-14T20:43:01.977Z,1.82
2019-05-14T20:45:32.348Z,2.08
2019-05-14T20:48:02.071Z,2.20
2019-05-14T20:50:31.648Z,1.70
2019-05-14T20:53:01.208Z,1.47
2019-05-14T20:55:30.957Z,1.72
2019-05-14T20:58:00.441Z,1.47
2019-05-14T21:00:30.074Z,1.60
2019-05-14T21:02:59.835Z,1.90
2019-05-14T21:05:29.493Z,2.30
2019-05-14T21:07:59.241Z,2.20
2019-05-14T21:10:29.360Z,2.62
2019-05-14T21:12:58.882Z,2.50
2019-05-14T21:15:28.887Z,2.90
2019-05-14T21:17:59.532Z,2.45
2019-05-14T21:20:29.591Z,2.50
2019-05-14T21:22:59.189Z,2.52
2019-05-14T21:25:29.537Z,2.37
2019-05-14T21:28:00.277Z,2.40
2019-05-14T21:30:29.918Z,2.37
2019-05-14T21:33:00.342Z,2.30
2019-05-14T21:35:30.181Z,2.20
2019-05-14T21:38:01.439Z,2.05
2019-05-14T21:40:32.078Z,2.37
2019-05-14T21:43:01.779Z,2.50
2019-05-14T21:45:31.200Z,2.15
2019-05-14T21:48:02.312Z,1.90
2019-05-14T21:50:31.753Z,2.00
2019-05-14T21:53:01.239Z,2.05
2019-05-14T21:55:30.813Z,1.98
2019-05-14T21:58:00.566Z,2.30
2019-05-14T22:00:43.082Z,2.20
2019-05-14T22:03:12.971Z,2.30
2019-05-14T22:05:42.482Z,2.00
2019-05-14T22:08:11.989Z,2.00
2019-05-14T22:10:41.445Z,2.22
2019-05-14T22:13:12.197Z,1.90
2019-05-14T22:15:41.724Z,2.12
2019-05-14T22:18:17.702Z,1.92
2019-05-14T22:20:42.574Z,1.95
2019-05-14T22:23:12.058Z,1.87
2019-05-14T22:25:41.589Z,1.80
2019-05-14T22:28:15.588Z,1.65
2019-05-14T22:30:43.191Z,1.80
2019-05-14T22:33:12.705Z,1.80
2019-05-14T22:35:42.450Z,1.70
2019-05-14T22:38:12.931Z,1.60
2019-05-14T22:40:42.541Z,1.40
2019-05-14T22:43:12.584Z,1.77
2019-05-14T22:45:42.086Z,2.00
2019-05-14T22:48:11.601Z,1.67
2019-05-14T22:50:41.516Z,1.60
2019-05-14T22:53:11.155Z,1.90
2019-05-14T22:55:40.618Z,1.80
2019-05-14T22:58:24.562Z,1.67
2019-05-14T23:00:47.291Z,1.80
2019-05-14T23:03:12.896Z,1.72
2019-05-14T23:05:42.629Z,1.77
2019-05-14T23:08:12.128Z,1.87
2019-05-14T23:10:42.580Z,1.90
2019-05-14T23:13:12.064Z,1.70
2019-05-14T23:15:42.509Z,1.70
2019-05-14T23:18:12.195Z,3.00
2019-05-14T23:20:42.063Z,3.20
2019-05-14T23:23:11.877Z,3.10
2019-05-14T23:25:41.369Z,2.12
2019-05-14T23:28:10.940Z,2.40
2019-05-14T23:30:40.413Z,2.22
2019-05-14T23:33:10.297Z,1.98
2019-05-14T23:35:39.960Z,1.80
2019-05-14T23:38:09.669Z,1.95
2019-05-14T23:40:39.253Z,2.20
2019-05-14T23:43:08.800Z,5.33
2019-05-14T23:45:38.352Z,2.02
2019-05-14T23:48:09.507Z,2.20
2019-05-14T23:50:40.047Z,2.50
2019-05-14T23:53:09.577Z,2.72
2019-05-14T23:55:39.079Z,3.35
2019-05-14T23:58:08.858Z,2.95
